Time;durP1;ratioP1;P1;durP2;ratioP2;P2;SDS_P1;SDS_P2;PMS_P1;PMS_P2;Temp;Humidity;BMP_temperature;BMP_pressure;BME280_temperature;BME280_humidity;BME280_pressure;Samples;Min_cycle;Max_cycle;Signal;HPM_P1;HPM_P2
2022/06/04 00:01:37;;;;;;;2.80;2.60;;;22.00;75.90;;;;;;927084;152;27379;-75
2022/06/04 00:04:03;;;;;;;3.08;2.83;;;22.00;75.90;;;;;;920937;154;27349;-76
2022/06/04 00:09:06;;;;;;;2.83;2.62;;;22.00;76.30;;;;;;947494;146;88170;-76
2022/06/04 00:17:02;;;;;;;2.70;2.50;;;22.00;76.40;;;;;;947769;147;27337;-78
2022/06/04 00:19:28;;;;;;;2.60;2.40;;;22.00;76.50;;;;;;953159;148;27451;-77
2022/06/04 00:21:55;;;;;;;2.30;2.20;;;22.00;76.70;;;;;;965713;145;27767;-77
2022/06/04 00:24:22;;;;;;;2.67;2.30;;;21.90;76.80;;;;;;961598;146;27350;-78
2022/06/04 00:26:48;;;;;;;2.65;2.50;;;21.90;77.10;;;;;;959622;145;27408;-78
2022/06/04 00:29:15;;;;;;;2.75;2.55;;;21.90;77.20;;;;;;963493;145;27328;-78
2022/06/04 00:31:41;;;;;;;4.28;2.58;;;22.00;77.50;;;;;;961777;146;27412;-78
2022/06/04 00:34:09;;;;;;;2.52;2.33;;;21.90;77.60;;;;;;936013;149;27354;-78
2022/06/04 00:36:35;;;;;;;3.40;2.62;;;21.90;77.70;;;;;;933456;150;27257;-77
2022/06/04 00:39:01;;;;;;;4.03;2.47;;;21.90;77.80;;;;;;950886;147;28076;-77
2022/06/04 00:41:34;;;;;;;2.62;2.42;;;21.90;78.00;;;;;;936160;150;27388;-78
2022/06/04 00:44:06;;;;;;;2.70;2.50;;;21.90;78.10;;;;;;928895;149;27346;-78
2022/06/04 00:46:42;;;;;;;2.87;2.67;;;21.90;78.30;;;;;;940749;148;27734;-77
2022/06/04 00:49:14;;;;;;;3.98;2.87;;;21.90;78.30;;;;;;940516;148;27338;-78
2022/06/04 00:51:40;;;;;;;3.50;3.20;;;21.90;78.70;;;;;;937346;148;27440;-77
2022/06/04 00:54:07;;;;;;;3.15;2.90;;;21.90;79.40;;;;;;943558;148;27252;-77
2022/06/04 00:56:55;;;;;;;3.60;3.22;;;21.90;79.80;;;;;;941987;148;27342;-78
2022/06/04 00:59:43;;;;;;;3.58;3.25;;;21.90;80.20;;;;;;941409;148;27438;-78
2022/06/04 01:02:18;;;;;;;3.50;3.30;;;21.80;80.30;;;;;;944259;148;27412;-78
2022/06/04 01:05:10;;;;;;;3.00;2.80;;;21.80;80.70;;;;;;939418;148;27458;-78
2022/06/04 01:07:57;;;;;;;3.17;2.98;;;21.80;81.20;;;;;;941907;148;27319;-78
2022/06/04 01:10:48;;;;;;;4.03;3.62;;;21.70;81.40;;;;;;936070;150;27776;-78
2022/06/04 01:13:30;;;;;;;3.65;3.45;;;21.70;81.60;;;;;;927047;150;27365;-77
2022/06/04 01:16:06;;;;;;;3.75;3.45;;;21.70;81.80;;;;;;931265;150;27342;-78
2022/06/04 01:18:50;;;;;;;3.77;3.40;;;21.60;82.10;;;;;;941968;150;27408;-77
2022/06/04 01:21:22;;;;;;;3.50;3.30;;;21.50;82.90;;;;;;931848;150;27350;-78
2022/06/04 01:23:54;;;;;;;4.22;3.30;;;21.50;82.60;;;;;;933462;150;27328;-77
2022/06/04 01:26:52;;;;;;;3.05;2.85;;;21.50;83.00;;;;;;934137;150;27359;-78
2022/06/04 01:29:18;;;;;;;3.37;3.17;;;21.40;83.10;;;;;;933070;150;27403;-77
2022/06/04 01:31:47;;;;;;;3.42;3.22;;;21.40;83.10;;;;;;930428;150;27776;-77
2022/06/04 01:34:14;;;;;;;2.95;2.83;;;21.30;83.60;;;;;;929722;150;27364;-77
2022/06/04 01:36:43;;;;;;;3.10;2.92;;;21.30;84.00;;;;;;932950;150;26589;-78
2022/06/04 01:39:10;;;;;;;3.47;3.15;;;21.20;84.70;;;;;;930828;150;27403;-77
2022/06/04 01:41:55;;;;;;;4.12;3.75;;;21.10;85.00;;;;;;939653;150;27433;-77
2022/06/04 01:44:21;;;;;;;4.47;3.80;;;21.10;85.40;;;;;;935166;150;27367;-77
2022/06/04 01:46:51;;;;;;;3.33;3.10;;;21.00;85.60;;;;;;936344;150;27252;-77
2022/06/04 01:49:23;;;;;;;3.72;3.42;;;20.90;86.20;;;;;;937611;150;27436;-77
2022/06/04 01:51:50;;;;;;;4.00;3.67;;;20.90;87.00;;;;;;934701;150;27338;-77
2022/06/04 01:54:28;;;;;;;3.83;3.52;;;20.90;87.60;;;;;;936088;150;27375;-78
2022/06/04 01:56:55;;;;;;;3.52;3.22;;;20.80;88.20;;;;;;939850;150;27279;-78
2022/06/04 01:59:25;;;;;;;3.98;3.67;;;20.80;88.70;;;;;;918050;152;27380;-77
2022/06/04 02:01:52;;;;;;;3.80;3.50;;;20.80;89.10;;;;;;936061;150;27463;-77
2022/06/04 02:04:18;;;;;;;4.20;3.83;;;20.80;89.70;;;;;;921264;153;27379;-78
2022/06/04 02:09:38;;;;;;;4.40;3.90;;;20.80;90.10;;;;;;921840;153;27469;-78
2022/06/04 02:12:04;;;;;;;4.15;3.85;;;20.80;90.00;;;;;;947127;148;27295;-77
2022/06/04 02:14:31;;;;;;;4.22;3.77;;;20.80;90.20;;;;;;946441;148;27420;-77
2022/06/04 02:16:57;;;;;;;4.85;4.45;;;20.80;90.40;;;;;;952324;148;27236;-77
2022/06/04 02:19:24;;;;;;;6.70;4.67;;;20.80;90.50;;;;;;944888;148;27747;-78
2022/06/04 02:21:51;;;;;;;4.22;3.92;;;20.70;90.50;;;;;;948248;148;27332;-78
2022/06/04 02:24:17;;;;;;;4.08;3.77;;;20.70;90.60;;;;;;947989;147;27298;-77
2022/06/04 02:26:44;;;;;;;5.37;4.05;;;20.70;90.70;;;;;;944398;148;27366;-77
2022/06/04 02:29:10;;;;;;;4.67;4.15;;;20.70;90.80;;;;;;957037;147;27394;-78
2022/06/04 02:31:55;;;;;;;4.55;4.12;;;20.60;91.00;;;;;;954196;148;27310;-78
2022/06/04 02:34:22;;;;;;;4.25;3.77;;;20.60;91.10;;;;;;912778;155;27892;-78
2022/06/04 02:36:56;;;;;;;4.40;4.05;;;20.60;91.00;;;;;;909558;155;27294;-77
2022/06/04 02:39:33;;;;;;;5.40;3.92;;;20.50;91.00;;;;;;917445;148;27434;-77
2022/06/04 02:42:02;;;;;;;4.30;4.00;;;20.50;91.10;;;;;;946401;148;27281;-77
2022/06/04 02:44:47;;;;;;;4.33;4.03;;;20.40;91.10;;;;;;953715;148;27368;-77
2022/06/04 02:47:13;;;;;;;4.47;4.08;;;20.40;91.20;;;;;;947903;148;27351;-77
2022/06/04 02:49:53;;;;;;;4.22;3.92;;;20.30;91.20;;;;;;935940;148;27370;-77
2022/06/04 02:52:19;;;;;;;4.10;3.87;;;20.30;91.50;;;;;;945432;148;27436;-77
2022/06/04 02:55:10;;;;;;;3.58;3.37;;;20.20;91.60;;;;;;941207;148;27932;-76
2022/06/04 02:57:36;;;;;;;3.80;3.52;;;20.20;91.90;;;;;;950385;148;27858;-79
2022/06/04 03:00:03;;;;;;;3.90;3.60;;;20.10;91.80;;;;;;946414;148;27263;-79
2022/06/04 03:02:30;;;;;;;3.72;3.52;;;20.00;92.10;;;;;;950557;148;27731;-79
2022/06/04 03:04:56;;;;;;;3.80;3.55;;;20.00;92.30;;;;;;950728;148;27951;-76
2022/06/04 03:07:23;;;;;;;4.08;3.77;;;19.90;92.50;;;;;;952009;147;27370;-76
2022/06/04 03:09:49;;;;;;;4.35;3.00;;;19.90;92.80;;;;;;952905;145;27413;-76
2022/06/04 03:12:16;;;;;;;4.03;3.72;;;19.80;92.80;;;;;;948628;148;27620;-76
2022/06/04 03:14:43;;;;;;;3.17;2.98;;;19.80;93.00;;;;;;949255;148;27266;-76
2022/06/04 03:17:09;;;;;;;4.17;3.70;;;19.80;93.20;;;;;;955480;146;27313;-76
2022/06/04 03:19:36;;;;;;;3.60;3.40;;;19.70;93.30;;;;;;954165;146;27395;-76
2022/06/04 03:22:02;;;;;;;3.67;3.40;;;19.70;93.50;;;;;;947189;148;27249;-76
2022/06/04 03:24:29;;;;;;;4.15;3.30;;;19.60;93.70;;;;;;948573;148;27352;-76
2022/06/04 03:26:55;;;;;;;3.60;3.30;;;19.60;93.80;;;;;;946431;148;27418;-76
2022/06/04 03:29:22;;;;;;;3.42;3.15;;;19.60;93.90;;;;;;954218;148;27443;-76
2022/06/04 03:31:49;;;;;;;4.03;3.75;;;19.50;94.00;;;;;;955871;146;27384;-76
2022/06/04 03:34:15;;;;;;;3.98;3.70;;;19.50;94.20;;;;;;946004;148;27247;-76
2022/06/04 03:36:42;;;;;;;4.15;3.85;;;19.50;94.50;;;;;;945739;148;27172;-76
2022/06/04 03:39:08;;;;;;;3.25;3.05;;;19.50;94.60;;;;;;952072;148;27333;-76
2022/06/04 03:41:35;;;;;;;3.90;3.60;;;19.50;94.80;;;;;;944006;148;27243;-76
2022/06/04 03:44:02;;;;;;;4.15;3.85;;;19.50;95.00;;;;;;942453;148;27300;-76
2022/06/04 03:46:28;;;;;;;3.62;3.33;;;19.50;95.20;;;;;;941766;148;27259;-76
2022/06/04 03:48:55;;;;;;;4.58;4.17;;;19.50;95.30;;;;;;953145;148;27387;-76
2022/06/04 03:51:21;;;;;;;3.67;3.47;;;19.50;95.50;;;;;;951940;148;27253;-76
2022/06/04 03:53:48;;;;;;;4.70;3.77;;;19.50;95.60;;;;;;946833;148;27238;-76
2022/06/04 03:56:14;;;;;;;3.87;3.58;;;19.60;95.80;;;;;;950658;146;27268;-76
2022/06/04 03:58:41;;;;;;;4.00;3.70;;;19.60;96.00;;;;;;953285;148;27416;-76
2022/06/04 04:01:14;;;;;;;3.77;3.47;;;19.60;96.10;;;;;;943578;148;27270;-75
2022/06/04 04:03:40;;;;;;;3.75;3.52;;;19.70;96.30;;;;;;950159;148;27340;-76
2022/06/04 04:06:07;;;;;;;3.40;3.20;;;19.80;96.40;;;;;;948676;148;27342;-76
2022/06/04 04:08:34;;;;;;;3.60;3.40;;;19.80;96.50;;;;;;950254;147;27356;-76
2022/06/04 04:11:00;;;;;;;3.70;3.50;;;19.90;96.60;;;;;;942612;148;27298;-76
2022/06/04 04:13:27;;;;;;;4.10;3.70;;;20.00;96.70;;;;;;946405;148;27327;-76
2022/06/04 04:15:53;;;;;;;3.72;3.42;;;20.10;96.70;;;;;;951323;148;27367;-76
2022/06/04 04:18:20;;;;;;;3.47;3.17;;;20.20;96.70;;;;;;950340;148;27394;-76
2022/06/04 04:20:48;;;;;;;3.55;3.25;;;20.20;96.50;;;;;;947193;148;27374;-76
2022/06/04 04:23:13;;;;;;;3.47;3.27;;;20.30;96.30;;;;;;951523;145;27265;-76
2022/06/04 04:25:40;;;;;;;4.15;3.72;;;20.40;96.10;;;;;;952828;146;27232;-76
2022/06/04 04:28:06;;;;;;;3.60;3.40;;;20.50;96.00;;;;;;960011;147;27561;-76
2022/06/04 04:30:33;;;;;;;3.85;3.35;;;20.60;95.80;;;;;;950986;145;27329;-76
2022/06/04 04:32:59;;;;;;;4.45;4.05;;;20.60;96.00;;;;;;944609;148;27340;-76
2022/06/04 04:35:26;;;;;;;3.92;3.62;;;20.70;95.50;;;;;;950122;148;27240;-76
2022/06/04 04:37:53;;;;;;;3.98;3.77;;;20.80;95.40;;;;;;940727;148;27262;-76
2022/06/04 04:40:19;;;;;;;4.22;3.83;;;20.80;95.40;;;;;;949938;148;27259;-76
2022/06/04 04:42:48;;;;;;;4.55;4.15;;;20.90;95.40;;;;;;951082;145;27244;-76
2022/06/04 04:45:12;;;;;;;4.50;4.10;;;21.00;95.20;;;;;;949514;147;27293;-76
2022/06/04 04:47:39;;;;;;;4.12;3.83;;;21.10;95.10;;;;;;942065;148;27428;-76
2022/06/04 04:50:06;;;;;;;4.97;4.20;;;21.10;95.10;;;;;;947079;148;27297;-76
2022/06/04 04:52:32;;;;;;;4.95;4.55;;;21.20;95.40;;;;;;951060;148;27293;-76
2022/06/04 04:54:59;;;;;;;4.40;4.10;;;21.30;96.20;;;;;;944834;148;27383;-76
2022/06/04 04:57:26;;;;;;;3.87;3.67;;;21.60;97.30;;;;;;947854;148;27324;-77
2022/06/04 04:59:52;;;;;;;3.67;3.37;;;21.90;98.20;;;;;;941921;148;27334;-77
2022/06/04 05:02:19;;;;;;;3.35;3.05;;;22.30;99.20;;;;;;948416;147;27278;-77
2022/06/04 05:04:45;;;;;;;4.08;3.77;;;22.90;99.60;;;;;;947664;146;27330;-77
2022/06/04 05:07:12;;;;;;;2.92;2.72;;;23.50;99.50;;;;;;952122;147;27360;-77
2022/06/04 05:09:39;;;;;;;3.67;3.47;;;24.30;98.70;;;;;;955008;148;27339;-77
2022/06/04 05:12:05;;;;;;;2.77;2.67;;;25.00;98.10;;;;;;946152;148;27280;-77
2022/06/04 05:14:32;;;;;;;4.65;2.92;;;25.90;96.40;;;;;;944954;148;27367;-77
2022/06/04 05:16:58;;;;;;;2.75;2.55;;;26.70;94.60;;;;;;955283;146;27400;-77
2022/06/04 05:19:25;;;;;;;3.08;2.87;;;27.40;92.50;;;;;;947034;148;27273;-77
2022/06/04 05:21:52;;;;;;;3.40;3.20;;;28.10;88.80;;;;;;946443;149;27261;-77
2022/06/04 05:24:27;;;;;;;3.25;3.05;;;28.60;82.40;;;;;;945209;148;27276;-77
2022/06/04 05:26:54;;;;;;;4.83;3.17;;;29.00;78.10;;;;;;944794;146;27750;-77
2022/06/04 05:29:20;;;;;;;3.50;3.20;;;29.20;74.30;;;;;;949907;147;27270;-77
2022/06/04 05:31:47;;;;;;;3.70;3.40;;;29.30;72.10;;;;;;949663;148;27337;-77
2022/06/04 05:34:13;;;;;;;3.72;3.35;;;29.30;70.70;;;;;;951250;148;27371;-77
2022/06/04 05:36:40;;;;;;;3.62;3.33;;;29.30;70.70;;;;;;949615;147;27248;-77
2022/06/04 05:39:07;;;;;;;3.45;3.15;;;29.40;71.20;;;;;;953422;148;27431;-77
2022/06/04 05:41:33;;;;;;;3.02;2.83;;;29.60;72.10;;;;;;948541;148;27326;-77
2022/06/04 05:44:00;;;;;;;3.50;3.20;;;30.00;72.70;;;;;;949667;148;27208;-77
2022/06/04 05:46:26;;;;;;;3.05;2.85;;;30.40;71.80;;;;;;953995;148;27470;-77
2022/06/04 05:48:53;;;;;;;3.33;3.12;;;30.80;70.60;;;;;;947256;148;27254;-77
2022/06/04 05:51:20;;;;;;;3.45;3.25;;;31.30;69.70;;;;;;946042;148;27224;-77
2022/06/04 05:53:48;;;;;;;4.45;3.12;;;31.80;68.30;;;;;;952251;148;27321;-77
2022/06/04 05:56:16;;;;;;;3.02;2.83;;;32.30;66.70;;;;;;953604;148;27350;-77
2022/06/04 05:58:42;;;;;;;3.72;3.00;;;32.80;64.80;;;;;;950108;148;27449;-78
2022/06/04 06:01:09;;;;;;;2.67;2.47;;;33.30;63.70;;;;;;945352;148;27266;-78
2022/06/04 06:03:35;;;;;;;2.67;2.47;;;33.70;62.70;;;;;;949888;148;27391;-78
2022/06/04 06:06:02;;;;;;;2.33;2.22;;;34.10;61.90;;;;;;950828;148;27329;-78
2022/06/04 06:08:29;;;;;;;2.35;2.25;;;34.60;61.00;;;;;;952384;148;27414;-78
2022/06/04 06:10:55;;;;;;;2.60;2.50;;;35.10;60.00;;;;;;946393;148;26238;-78
2022/06/04 06:13:22;;;;;;;2.17;1.98;;;35.60;58.90;;;;;;954178;147;27520;-78
2022/06/04 06:15:48;;;;;;;2.70;2.40;;;36.20;57.70;;;;;;956276;147;26234;-78
2022/06/04 06:18:15;;;;;;;2.58;2.47;;;36.60;56.60;;;;;;961693;147;26243;-78
2022/06/04 06:20:42;;;;;;;2.52;2.33;;;37.00;55.70;;;;;;954248;147;26262;-78
2022/06/04 06:23:09;;;;;;;2.47;2.27;;;37.30;54.70;;;;;;954486;147;26886;-78
2022/06/04 06:25:35;;;;;;;2.35;2.25;;;37.70;53.90;;;;;;956366;147;26325;-78
2022/06/04 06:28:01;;;;;;;2.52;2.42;;;37.90;52.90;;;;;;959771;147;26226;-78
2022/06/04 06:30:28;;;;;;;2.25;2.12;;;38.10;52.20;;;;;;961398;147;26378;-78
2022/06/04 06:32:58;;;;;;;2.35;2.25;;;38.40;51.80;;;;;;954674;144;26390;-78
2022/06/04 06:35:21;;;;;;;2.33;2.12;;;38.50;51.00;;;;;;953020;147;26352;-78
2022/06/04 06:37:48;;;;;;;2.37;2.27;;;38.70;50.30;;;;;;961316;147;27251;-78
2022/06/04 06:40:15;;;;;;;3.00;2.30;;;38.80;49.60;;;;;;952272;147;26286;-78
2022/06/04 06:42:41;;;;;;;2.02;1.92;;;38.90;49.20;;;;;;957430;147;27375;-78
2022/06/04 06:45:08;;;;;;;2.02;1.92;;;38.90;49.00;;;;;;954047;147;26291;-78
2022/06/04 06:47:35;;;;;;;2.17;2.08;;;39.00;48.90;;;;;;956145;147;27341;-78
2022/06/04 06:50:01;;;;;;;2.15;2.05;;;39.30;48.60;;;;;;951938;147;26295;-78
2022/06/04 06:52:28;;;;;;;2.15;1.95;;;39.60;48.30;;;;;;957113;147;26245;-78
2022/06/04 06:54:54;;;;;;;2.22;2.02;;;39.80;47.50;;;;;;955032;147;27643;-78
2022/06/04 06:57:21;;;;;;;2.00;1.90;;;40.00;46.20;;;;;;960561;147;26373;-78
2022/06/04 06:59:48;;;;;;;1.75;1.65;;;39.90;45.40;;;;;;955544;147;27453;-78
2022/06/04 07:02:14;;;;;;;3.70;1.87;;;40.00;45.00;;;;;;949458;147;26372;-78
2022/06/04 07:04:41;;;;;;;1.72;1.62;;;39.80;44.60;;;;;;958814;147;26290;-78
2022/06/04 07:07:07;;;;;;;1.92;1.82;;;39.70;44.80;;;;;;958927;147;27304;-78
2022/06/04 07:09:36;;;;;;;2.10;2.00;;;39.60;44.70;;;;;;954845;147;26344;-78
2022/06/04 07:12:03;;;;;;;1.55;1.45;;;39.50;44.60;;;;;;957603;147;26342;-78
2022/06/04 07:14:30;;;;;;;1.70;1.60;;;39.50;44.70;;;;;;951207;148;26300;-78
2022/06/04 07:16:57;;;;;;;1.37;1.35;;;39.40;44.20;;;;;;948617;148;26342;-78
2022/06/04 07:19:23;;;;;;;1.72;1.47;;;39.20;43.90;;;;;;952794;147;26242;-78
2022/06/04 07:21:49;;;;;;;1.50;1.40;;;39.10;43.50;;;;;;953686;148;26299;-78
2022/06/04 07:24:16;;;;;;;1.22;1.22;;;38.90;43.60;;;;;;954279;148;26381;-78
2022/06/04 07:26:43;;;;;;;2.27;1.80;;;38.80;43.60;;;;;;938920;148;26292;-78
2022/06/04 07:29:09;;;;;;;1.35;1.25;;;38.70;43.50;;;;;;943873;148;27355;-78
2022/06/04 07:31:36;;;;;;;1.10;1.10;;;38.60;43.60;;;;;;941475;148;26285;-78
2022/06/04 07:34:02;;;;;;;1.20;1.20;;;38.50;43.30;;;;;;940779;148;26267;-78
2022/06/04 07:36:32;;;;;;;1.40;1.30;;;38.30;42.90;;;;;;925312;151;26292;-78
2022/06/04 07:38:58;;;;;;;1.47;1.40;;;38.10;43.00;;;;;;944430;148;27440;-78
2022/06/04 07:41:28;;;;;;;1.65;1.30;;;37.80;42.60;;;;;;943955;148;27341;-78
2022/06/04 07:43:54;;;;;;;1.42;1.32;;;37.50;42.60;;;;;;939682;148;27428;-78
2022/06/04 07:46:21;;;;;;;1.32;1.22;;;37.20;42.60;;;;;;941066;148;27487;-78
2022/06/04 07:48:47;;;;;;;1.30;1.30;;;36.80;42.50;;;;;;942143;148;27390;-78
2022/06/04 07:51:14;;;;;;;1.40;1.30;;;36.30;42.60;;;;;;944936;148;27361;-78
2022/06/04 07:53:40;;;;;;;1.40;1.30;;;35.90;42.80;;;;;;943316;148;27412;-78
2022/06/04 07:56:08;;;;;;;1.40;1.40;;;35.40;43.30;;;;;;948943;148;27353;-78
2022/06/04 07:58:34;;;;;;;1.35;1.20;;;34.90;43.70;;;;;;948709;148;27415;-78
2022/06/04 08:01:01;;;;;;;1.45;1.35;;;34.60;44.20;;;;;;943258;148;27717;-77
2022/06/04 08:03:27;;;;;;;1.95;1.67;;;34.30;44.70;;;;;;944284;148;27365;-78
2022/06/04 08:05:53;;;;;;;1.30;1.30;;;34.00;45.20;;;;;;943816;148;27345;-78
2022/06/04 08:08:20;;;;;;;1.92;1.40;;;33.80;45.80;;;;;;944687;147;27364;-78
2022/06/04 08:10:46;;;;;;;1.35;1.30;;;33.70;46.20;;;;;;958563;148;27416;-78
2022/06/04 08:13:15;;;;;;;1.98;1.30;;;33.80;46.40;;;;;;942138;148;27447;-78
2022/06/04 08:15:42;;;;;;;1.98;1.47;;;33.90;46.60;;;;;;934248;150;27392;-78
2022/06/04 08:18:06;;;;;;;1.40;1.30;;;34.00;46.50;;;;;;930617;149;27462;-78
2022/06/04 08:20:33;;;;;;;1.17;1.17;;;34.20;46.50;;;;;;935178;149;27403;-78
2022/06/04 08:22:59;;;;;;;1.67;1.57;;;34.30;46.30;;;;;;931600;150;27365;-78
2022/06/04 08:25:26;;;;;;;3.02;1.22;;;34.40;46.10;;;;;;935788;149;27363;-78
2022/06/04 08:27:53;;;;;;;1.90;1.80;;;34.50;46.10;;;;;;933630;149;27312;-78
2022/06/04 08:30:19;;;;;;;1.52;1.42;;;34.60;46.20;;;;;;932619;150;27757;-78
2022/06/04 08:32:46;;;;;;;1.42;1.32;;;34.70;46.30;;;;;;934057;150;27820;-78
2022/06/04 08:35:12;;;;;;;1.22;1.12;;;35.00;46.60;;;;;;933571;149;26338;-78
2022/06/04 08:37:39;;;;;;;1.20;1.10;;;35.40;47.00;;;;;;931633;149;26305;-78
2022/06/04 08:40:06;;;;;;;1.30;1.20;;;35.90;46.80;;;;;;929523;151;26258;-78
2022/06/04 08:42:41;;;;;;;1.75;1.02;;;36.50;46.00;;;;;;934278;151;26337;-78
2022/06/04 08:45:07;;;;;;;0.85;0.85;;;37.00;45.50;;;;;;930367;151;26361;-78
2022/06/04 08:47:34;;;;;;;1.02;1.02;;;37.50;44.80;;;;;;938054;150;26241;-78
2022/06/04 08:50:09;;;;;;;0.85;0.85;;;37.90;44.20;;;;;;943496;149;26409;-78
2022/06/04 08:52:45;;;;;;;0.90;0.90;;;38.20;43.00;;;;;;952053;149;26164;-78
2022/06/04 08:58:11;;;;;;;1.00;1.00;;;38.40;41.80;;;;;;932382;150;28178;-78
2022/06/04 09:00:53;;;;;;;1.10;1.10;;;38.20;41.50;;;;;;929796;150;27332;-78
2022/06/04 09:03:19;;;;;;;1.22;1.20;;;38.00;41.20;;;;;;920313;154;26262;-78
2022/06/04 09:06:01;;;;;;;1.98;1.30;;;37.70;41.20;;;;;;941732;148;26303;-78
2022/06/04 09:08:33;;;;;;;2.25;1.00;;;37.50;41.20;;;;;;943179;151;26320;-78
2022/06/04 09:11:00;;;;;;;1.37;1.32;;;37.20;41.40;;;;;;961274;148;27311;-78
2022/06/04 09:13:32;;;;;;;1.40;1.20;;;37.00;41.60;;;;;;952012;145;26198;-78
2022/06/04 09:15:59;;;;;;;1.30;1.20;;;36.90;41.80;;;;;;941032;148;26241;-78
2022/06/04 09:18:25;;;;;;;1.05;1.05;;;36.70;41.80;;;;;;945686;148;27378;-78
2022/06/04 09:20:54;;;;;;;1.57;1.47;;;36.50;41.70;;;;;;939305;148;27282;-78
2022/06/04 09:23:24;;;;;;;1.12;1.12;;;36.30;41.90;;;;;;953729;146;27386;-78
2022/06/04 09:25:53;;;;;;;1.20;1.20;;;36.00;42.20;;;;;;937887;149;27361;-78
2022/06/04 09:28:29;;;;;;;1.10;1.10;;;35.80;42.30;;;;;;950230;148;27456;-78
2022/06/04 09:31:13;;;;;;;1.50;1.40;;;35.50;42.40;;;;;;924147;149;27871;-78
2022/06/04 09:33:52;;;;;;;1.40;1.32;;;35.40;42.90;;;;;;936986;148;27347;-78
2022/06/04 09:36:18;;;;;;;1.70;1.60;;;35.40;43.00;;;;;;944326;149;27303;-78
2022/06/04 09:38:51;;;;;;;1.60;1.50;;;35.30;43.10;;;;;;942187;149;27903;-79
2022/06/04 09:41:21;;;;;;;1.65;1.55;;;35.40;43.40;;;;;;946535;148;27300;-79
2022/06/04 09:43:47;;;;;;;1.65;1.57;;;35.50;43.80;;;;;;947538;148;27513;-79
2022/06/04 09:46:14;;;;;;;1.90;1.40;;;35.80;44.20;;;;;;937860;149;26305;-78
2022/06/04 09:48:43;;;;;;;2.22;1.70;;;36.30;44.50;;;;;;945724;149;26305;-79
2022/06/04 09:51:15;;;;;;;1.35;1.25;;;36.60;44.10;;;;;;938558;149;26345;-79
2022/06/04 09:53:42;;;;;;;1.20;1.20;;;37.10;43.30;;;;;;946971;149;27976;-79
2022/06/04 09:56:12;;;;;;;1.50;1.40;;;37.50;42.60;;;;;;939964;148;26248;-79
2022/06/04 09:58:38;;;;;;;1.47;1.37;;;37.60;42.10;;;;;;938845;149;26327;-79
2022/06/04 10:01:08;;;;;;;1.30;1.20;;;37.80;41.70;;;;;;939935;149;26273;-79
2022/06/04 10:03:37;;;;;;;1.90;1.67;;;37.90;41.30;;;;;;946072;149;26254;-79
2022/06/04 10:06:07;;;;;;;1.35;1.25;;;37.90;41.00;;;;;;946162;148;27386;-79
2022/06/04 10:09:55;;;;;;;1.62;1.52;;;37.90;40.90;;;;;;942800;149;27418;-79
2022/06/04 10:11:03;;;;;;;1.37;1.32;;;37.80;40.70;;;;;;935139;149;26280;-78
2022/06/04 10:13:45;;;;;;;1.95;1.80;;;37.70;40.60;;;;;;940696;148;27445;-78
2022/06/04 10:16:19;;;;;;;1.47;1.37;;;37.70;40.50;;;;;;944600;147;26447;-78
2022/06/04 10:18:58;;;;;;;1.60;1.50;;;37.60;40.80;;;;;;950446;147;26617;-78
2022/06/04 10:21:25;;;;;;;1.62;1.52;;;37.50;40.70;;;;;;949672;147;26300;-79
2022/06/04 10:23:51;;;;;;;1.65;1.55;;;37.50;40.60;;;;;;957844;145;26236;-79
2022/06/04 10:26:46;;;;;;;1.50;1.40;;;37.50;40.60;;;;;;947043;147;26250;-79
2022/06/04 10:29:27;;;;;;;1.50;1.50;;;37.50;40.60;;;;;;950434;147;26240;-79
2022/06/04 10:32:14;;;;;;;1.40;1.30;;;37.50;40.50;;;;;;951986;147;26372;-79
2022/06/04 10:34:47;;;;;;;1.47;1.42;;;37.50;40.30;;;;;;947327;147;27776;-78
2022/06/04 10:37:32;;;;;;;1.42;1.32;;;37.30;40.30;;;;;;948596;147;27876;-79
2022/06/04 10:40:17;;;;;;;1.77;1.27;;;37.30;40.30;;;;;;958430;147;26195;-78
2022/06/04 10:43:02;;;;;;;1.45;1.35;;;37.10;40.30;;;;;;949705;147;26287;-78
2022/06/04 10:45:41;;;;;;;1.50;1.42;;;36.90;40.20;;;;;;955644;147;26211;-78
2022/06/04 10:48:13;;;;;;;1.30;1.30;;;36.80;40.20;;;;;;958129;147;27913;-78
2022/06/04 10:53:33;;;;;;;1.42;1.42;;;36.60;40.50;;;;;;948373;147;26255;-78
2022/06/04 10:56:00;;;;;;;1.60;1.50;;;36.50;40.20;;;;;;949890;147;27957;-79
2022/06/04 10:58:41;;;;;;;1.57;1.52;;;36.30;39.90;;;;;;950696;147;27805;-78
2022/06/04 11:01:20;;;;;;;1.35;1.30;;;36.10;40.10;;;;;;949106;147;27741;-78
2022/06/04 11:03:52;;;;;;;1.57;1.47;;;35.90;40.70;;;;;;948125;147;27368;-78
2022/06/04 11:06:40;;;;;;;1.35;1.35;;;35.60;40.50;;;;;;952371;147;27365;-78
2022/06/04 11:09:15;;;;;;;1.50;1.40;;;35.40;40.70;;;;;;951340;147;27332;-78
2022/06/04 11:12:00;;;;;;;2.17;1.75;;;35.20;41.00;;;;;;952025;147;27327;-78
2022/06/04 11:14:26;;;;;;;1.30;1.30;;;35.10;41.40;;;;;;951934;147;27351;-78
2022/06/04 11:16:53;;;;;;;1.45;1.35;;;35.00;41.70;;;;;;957772;147;27431;-79
2022/06/04 11:19:31;;;;;;;1.60;1.50;;;35.00;41.60;;;;;;958690;147;27383;-78
2022/06/04 11:22:13;;;;;;;1.65;1.55;;;35.00;41.70;;;;;;954826;147;27385;-78
2022/06/04 11:24:58;;;;;;;1.77;1.65;;;35.00;41.70;;;;;;953716;147;27498;-78
2022/06/04 11:27:37;;;;;;;1.60;1.50;;;35.00;41.60;;;;;;946404;147;27315;-78
2022/06/04 11:30:03;;;;;;;1.40;1.30;;;34.90;41.40;;;;;;948015;147;27433;-78
2022/06/04 11:32:54;;;;;;;1.80;1.70;;;34.80;41.30;;;;;;949400;147;27887;-78
2022/06/04 11:35:23;;;;;;;1.85;1.70;;;34.70;41.30;;;;;;948716;147;27483;-78
2022/06/04 11:38:26;;;;;;;1.60;1.50;;;34.70;41.40;;;;;;949168;145;27405;-78
2022/06/04 11:41:11;;;;;;;1.80;1.60;;;34.60;41.50;;;;;;950308;146;27376;-78
2022/06/04 11:43:44;;;;;;;1.72;1.62;;;34.50;41.40;;;;;;951897;147;27392;-78
2022/06/04 11:46:29;;;;;;;1.50;1.40;;;34.50;41.50;;;;;;947485;147;27375;-78
2022/06/04 11:49:05;;;;;;;1.27;1.27;;;34.30;41.50;;;;;;946738;147;27373;-78
2022/06/04 11:51:52;;;;;;;1.75;1.65;;;34.10;41.30;;;;;;947390;147;27452;-78
2022/06/04 11:54:22;;;;;;;1.50;1.30;;;33.90;41.30;;;;;;946257;147;27366;-78
2022/06/04 11:57:10;;;;;;;1.70;1.60;;;33.70;41.30;;;;;;950959;147;27343;-78
2022/06/04 11:59:51;;;;;;;1.60;1.50;;;33.40;41.50;;;;;;948491;147;27244;-78
2022/06/04 12:02:36;;;;;;;1.65;1.55;;;33.20;41.80;;;;;;952268;147;27404;-78
2022/06/04 12:05:15;;;;;;;1.90;1.70;;;33.00;43.20;;;;;;950602;147;27352;-78
2022/06/04 12:07:41;;;;;;;2.12;1.87;;;32.70;43.70;;;;;;949232;147;27308;-78
2022/06/04 12:10:29;;;;;;;1.77;1.67;;;32.50;44.30;;;;;;948286;147;27323;-78
2022/06/04 12:13:07;;;;;;;2.90;1.95;;;32.40;44.70;;;;;;949877;147;27265;-78
2022/06/04 12:15:46;;;;;;;7.95;1.80;;;32.30;45.10;;;;;;953636;147;27438;-78
2022/06/04 12:18:34;;;;;;;1.82;1.72;;;32.10;45.40;;;;;;948774;147;27336;-78
2022/06/04 12:26:35;;;;;;;1.57;1.50;;;32.20;46.00;;;;;;943873;148;27295;-78
2022/06/04 12:29:20;;;;;;;2.30;2.10;;;32.20;45.90;;;;;;955269;148;27307;-78
2022/06/04 12:31:48;;;;;;;1.70;1.60;;;32.30;46.30;;;;;;950246;148;27389;-78
2022/06/04 12:34:24;;;;;;;1.87;1.77;;;32.40;46.30;;;;;;949173;148;27305;-78
2022/06/04 12:36:50;;;;;;;1.90;1.80;;;32.50;46.20;;;;;;949075;148;28184;-79
2022/06/04 12:39:20;;;;;;;1.70;1.60;;;32.60;46.20;;;;;;953072;148;27307;-79
2022/06/04 12:41:49;;;;;;;1.90;1.80;;;32.80;46.20;;;;;;947217;148;27316;-78
2022/06/04 12:44:19;;;;;;;1.90;1.80;;;32.90;46.10;;;;;;945553;148;27401;-78
2022/06/04 12:46:48;;;;;;;1.62;1.60;;;33.00;46.00;;;;;;947504;148;27450;-78
2022/06/04 12:49:33;;;;;;;1.90;1.80;;;33.10;45.40;;;;;;948022;148;27477;-78
2022/06/04 12:52:00;;;;;;;1.70;1.60;;;33.20;45.10;;;;;;948097;148;27234;-78
2022/06/04 12:54:32;;;;;;;1.60;1.50;;;33.20;45.00;;;;;;943992;148;27419;-78
2022/06/04 12:56:58;;;;;;;2.00;1.82;;;33.30;45.00;;;;;;940546;148;27302;-78
2022/06/04 12:59:25;;;;;;;2.83;1.65;;;33.30;44.80;;;;;;944914;148;27686;-78
2022/06/04 13:01:52;;;;;;;1.52;1.50;;;33.40;44.70;;;;;;948598;147;27411;-78
2022/06/04 13:04:21;;;;;;;1.67;1.60;;;33.50;44.70;;;;;;947623;148;27226;-78
2022/06/04 13:06:51;;;;;;;1.40;1.40;;;33.60;44.40;;;;;;953095;145;27273;-78
2022/06/04 13:09:42;;;;;;;1.42;1.37;;;33.70;44.10;;;;;;944368;148;27403;-78
2022/06/04 13:12:29;;;;;;;1.60;1.50;;;33.70;43.90;;;;;;941727;148;27306;-78
2022/06/04 13:14:56;;;;;;;1.25;1.25;;;33.80;43.80;;;;;;940690;147;27659;-78
2022/06/04 13:17:27;;;;;;;1.55;1.45;;;33.90;43.70;;;;;;947757;147;27348;-78
2022/06/04 13:19:52;;;;;;;1.60;1.50;;;33.90;43.80;;;;;;949804;147;27385;-78
2022/06/04 13:22:28;;;;;;;1.40;1.30;;;34.00;43.60;;;;;;952012;147;27445;-78
2022/06/04 13:24:54;;;;;;;1.47;1.37;;;34.00;43.20;;;;;;953228;147;27354;-78
2022/06/04 13:27:21;;;;;;;1.40;1.40;;;33.90;42.80;;;;;;956576;147;27463;-78